This is the latest recevied weather packets stored in our database for station/object SR4DIG-13. If no packets are shown the sender has not sent any weather packets the latest 10 day(s).
| Time | Temp. | Humidity | Pressure | Rain* | Wind** | Luminosity | Snow |
|---|---|---|---|---|---|---|---|
| 1788613112 | 23.33° C | 47% | 1008.2 hPa | 0 mm | - | - | - |
| 1788612811 | 22.78° C | 49% | 1008.2 hPa | 0 mm | - | - | - |
| 1788612511 | 20.56° C | 54% | 1008.1 hPa | 0 mm | - | - | - |
| 1788611860 | 20.56° C | 58% | 1008.2 hPa | 0 mm | - | - | - |
| 1788611559 | 20° C | 60% | 1008.3 hPa | 0 mm | - | - | - |
| 1788611258 | 18.89° C | 65% | 1008.4 hPa | 0 mm | - | - | - |
| 1788610957 | 18.89° C | 65% | 1008.4 hPa | 0 mm | - | - | - |
| 1788610656 | 18.89° C | 65% | 1008.2 hPa | 0 mm | - | - | - |
| 1788610355 | 19.44° C | 64% | 1008.3 hPa | 0 mm | - | - | - |
| 1788610055 | 19.44° C | 65% | 1008.3 hPa | 0 mm | - | - | - |
| 1788609754 | 18.33° C | 68% | 1008.3 hPa | 0 mm | - | - | - |
| 1788609452 | 16.67° C | 70% | 1008.3 hPa | 0 mm | - | - | - |
| 1788609151 | 16.67° C | 70% | 1008.4 hPa | 0 mm | - | - | - |
| 1788608550 | 16.67° C | 68% | 1008.4 hPa | 0 mm | - | - | - |
| 1788608249 | 17.22° C | 64% | 1008.4 hPa | 0 mm | - | - | - |
| 1788607948 | 18.33° C | 60% | 1008.2 hPa | 0 mm | - | - | - |
| 1788607661 | 21.11° C | 50% | 1008.1 hPa | 0 mm | - | - | - |
| 1788607346 | 22.22° C | 49% | 1007.7 hPa | 0 mm | - | - | - |
| 1788607045 | 22.22° C | 51% | 1007.7 hPa | 0 mm | - | - | - |
| 1788606745 | 21.11° C | 51% | 1007.7 hPa | 0 mm | - | - | - |
| 1788606444 | 21.67° C | 51% | 1007.6 hPa | 0 mm | - | - | - |
| 1788606113 | 21.11° C | 51% | 1007.6 hPa | 0 mm | - | - | - |
| 1788605722 | 20.56° C | 53% | 1007.4 hPa | 0 mm | - | - | - |
| 1788605239 | 20.56° C | 53% | 1007.6 hPa | 0 mm | - | - | - |
| 1788604938 | 20.56° C | 52% | 1007.5 hPa | 0 mm | - | - | - |
* Rain latest hour (hover to see other rain measurements)
** Current wind speed in m/s (hover to see current wind gust speed)